Time;durP1;ratioP1;P1;durP2;ratioP2;P2;SDS_P1;SDS_P2;PMS_P1;PMS_P2;Temp;Humidity;BMP_temperature;BMP_pressure;BME280_temperature;BME280_humidity;BME280_pressure;Samples;Min_cycle;Max_cycle;Signal;HPM_P1;HPM_P2
2023/05/21 15:16:00;;;;;;;58.72;4.30;;;;;;;18.34;60.63;99474.91;7282475;19;129227;-65
2023/05/21 15:18:25;;;;;;;33.13;2.90;;;;;;;18.54;59.86;99474.16;7174053;19;3249844;-67
2023/05/21 15:20:51;;;;;;;22.15;2.20;;;;;;;18.74;58.37;99470.75;7341167;19;130486;-38
2023/05/21 15:23:17;;;;;;;34.55;2.67;;;;;;;18.88;57.88;99467.88;7343524;19;129348;-39
2023/05/21 15:25:42;;;;;;;37.40;2.97;;;;;;;18.92;57.37;99461.47;7345064;19;129203;-37
2023/05/21 15:28:07;;;;;;;27.08;2.42;;;;;;;19.13;57.37;99467.50;7348215;19;130716;-38
2023/05/21 15:30:33;;;;;;;113.63;7.93;;;;;;;19.21;56.40;99457.28;7345275;19;130408;-41
2023/05/21 15:32:58;;;;;;;10.88;1.40;;;;;;;19.37;55.69;99459.44;7347625;19;129680;-37
2023/05/21 15:35:23;;;;;;;53.15;3.95;;;;;;;19.45;56.27;99464.88;7345638;19;129762;-40
2023/05/21 15:37:49;;;;;;;21.45;1.98;;;;;;;19.56;55.18;99454.34;7348567;19;128863;-39
2023/05/21 15:40:14;;;;;;;19.45;1.95;;;;;;;19.60;54.64;99449.69;7347510;19;129555;-38
2023/05/21 15:42:40;;;;;;;27.08;2.47;;;;;;;19.71;54.59;99458.25;7345750;19;129543;-39
2023/05/21 15:45:05;;;;;;;33.20;2.60;;;;;;;19.80;54.17;99443.63;7346525;19;129432;-38
2023/05/21 15:47:31;;;;;;;23.00;2.30;;;;;;;19.88;53.93;99454.22;7347592;19;130360;-38
2023/05/21 15:49:57;;;;;;;24.65;2.17;;;;;;;19.93;54.02;99446.81;7347186;19;129100;-39
2023/05/21 15:52:24;;;;;;;31.80;2.42;;;;;;;20.00;53.91;99456.56;7346955;19;129224;-38
2023/05/21 15:54:49;;;;;;;23.90;2.25;;;;;;;20.04;53.43;99449.31;7346602;19;128804;-38
2023/05/21 15:57:15;;;;;;;30.77;2.58;;;;;;;20.07;53.49;99443.81;7347424;19;129049;-39
2023/05/21 15:59:40;;;;;;;16.95;1.63;;;;;;;20.15;53.32;99433.56;7347206;19;129711;-38
2023/05/21 16:02:06;;;;;;;44.47;3.05;;;;;;;20.18;53.03;99439.34;7346041;19;130447;-38
2023/05/21 16:04:32;;;;;;;41.65;3.25;;;;;;;20.24;53.62;99445.81;7347003;19;128872;-38
2023/05/21 16:06:58;;;;;;;21.33;2.03;;;;;;;20.25;52.86;99431.81;7348238;19;129194;-37
2023/05/21 16:09:23;;;;;;;27.77;2.45;;;;;;;20.30;52.42;99437.44;7347365;19;129644;-39
2023/05/21 16:11:48;;;;;;;37.75;2.72;;;;;;;20.35;52.45;99427.41;7344654;19;129179;-36
2023/05/21 16:14:14;;;;;;;27.25;2.25;;;;;;;20.36;52.27;99429.88;7346627;19;129308;-38
2023/05/21 16:16:39;;;;;;;20.35;1.92;;;;;;;20.43;51.48;99424.94;7345016;19;129098;-39
2023/05/21 16:19:05;;;;;;;22.67;2.10;;;;;;;20.44;51.89;99437.06;7347135;19;129265;-38
2023/05/21 16:21:31;;;;;;;43.25;3.28;;;;;;;20.44;51.69;99424.00;7345402;19;130834;-38
2023/05/21 16:23:56;;;;;;;61.87;4.73;;;;;;;20.46;51.57;99424.69;7346967;19;129548;-38
2023/05/21 16:26:21;;;;;;;36.55;2.97;;;;;;;20.43;51.42;99424.94;7328603;19;129204;-38
2023/05/21 16:28:47;;;;;;;57.97;4.57;;;;;;;20.38;51.49;99396.66;7317169;19;129345;-38
2023/05/21 16:31:13;;;;;;;35.22;3.03;;;;;;;20.50;51.58;99420.84;7317020;19;130404;-38
2023/05/21 16:33:38;;;;;;;25.33;1.88;;;;;;;20.46;51.61;99409.03;7318887;19;129260;-38
2023/05/21 16:36:03;;;;;;;17.15;1.65;;;;;;;20.57;50.87;99435.00;7314973;19;129278;-37
2023/05/21 16:38:30;;;;;;;36.45;2.85;;;;;;;20.59;51.22;99436.50;7313298;19;131395;-37
2023/05/21 16:40:55;;;;;;;32.40;2.70;;;;;;;20.49;51.22;99413.97;7315575;19;129334;-38
2023/05/21 16:43:21;;;;;;;45.13;3.72;;;;;;;20.62;50.77;99424.97;7315202;19;129257;-39
2023/05/21 16:45:47;;;;;;;19.58;1.70;;;;;;;20.57;50.94;99421.94;7314965;19;128937;-36
2023/05/21 16:48:13;;;;;;;42.20;3.10;;;;;;;20.63;51.17;99431.84;7313946;19;130666;-38
2023/05/21 16:50:39;;;;;;;41.05;3.08;;;;;;;20.65;50.55;99428.16;7317104;19;130321;-36
2023/05/21 16:53:06;;;;;;;16.73;1.67;;;;;;;20.66;50.77;99421.13;7316739;19;129671;-38
2023/05/21 16:55:33;;;;;;;12.98;1.38;;;;;;;20.64;50.61;99417.84;7314012;19;129133;-33
2023/05/21 16:58:00;;;;;;;83.72;6.07;;;;;;;20.67;50.64;99420.16;7314672;19;130715;-35
2023/05/21 17:00:26;;;;;;;;;;;;;;;20.67;50.33;99428.00;7316328;19;130738;-37
2023/05/21 17:02:51;;;;;;;15.32;1.55;;;;;;;20.72;50.78;99415.34;7317831;19;128910;-38
2023/05/21 17:05:17;;;;;;;19.88;1.95;;;;;;;20.69;50.79;99426.09;7315790;19;129332;-36
2023/05/21 17:07:42;;;;;;;29.83;2.38;;;;;;;20.70;50.56;99422.50;7316969;19;129069;-36
2023/05/21 17:10:08;;;;;;;26.17;2.15;;;;;;;20.70;50.43;99417.28;7316151;19;129638;-36
2023/05/21 17:12:34;;;;;;;28.20;2.35;;;;;;;20.74;50.55;99423.88;7316208;19;129207;-37
2023/05/21 17:14:59;;;;;;;18.88;1.80;;;;;;;20.74;50.21;99423.88;7312172;19;129683;-35
2023/05/21 17:17:25;;;;;;;55.47;4.15;;;;;;;20.75;50.11;99425.53;7313447;19;130202;-36
2023/05/21 17:19:50;;;;;;;21.77;1.88;;;;;;;20.76;50.32;99418.53;7316176;19;129298;-36
2023/05/21 17:22:15;;;;;;;19.25;1.63;;;;;;;20.80;50.17;99428.53;7317287;19;128769;-35
2023/05/21 17:24:41;;;;;;;18.65;1.77;;;;;;;20.77;49.64;99426.22;7313457;19;129135;-36
2023/05/21 17:27:06;;;;;;;35.58;2.78;;;;;;;20.79;50.00;99426.06;7315315;19;130575;-37
2023/05/21 17:29:32;;;;;;;24.27;1.92;;;;;;;20.79;50.03;99431.31;7314508;19;129736;-37
2023/05/21 17:31:58;;;;;;;30.35;2.40;;;;;;;20.79;50.46;99439.97;7315475;19;129181;-37
2023/05/21 17:34:28;;;;;;;33.53;3.17;;;;;;;20.90;50.71;99429.38;7314457;19;129868;-36
2023/05/21 17:36:53;;;;;;;39.08;3.25;;;;;;;20.92;50.71;99427.44;7314620;19;129240;-36
2023/05/21 17:39:19;;;;;;;22.73;2.35;;;;;;;20.91;50.69;99430.19;7314511;19;129202;-37
2023/05/21 17:41:46;;;;;;;23.00;2.58;;;;;;;20.94;50.57;99427.31;7312888;19;129080;-38
2023/05/21 17:44:12;;;;;;;;;;;;;;;20.91;49.85;99428.38;7316209;19;129354;-35
2023/05/21 17:46:37;;;;;;;38.42;3.47;;;;;;;20.92;50.27;99432.66;7313243;19;129019;-37
2023/05/21 17:49:04;;;;;;;18.25;2.13;;;;;;;20.92;50.35;99431.84;7315931;19;129651;-38
2023/05/21 17:51:30;;;;;;;41.15;3.28;;;;;;;20.94;49.71;99435.94;7315252;19;128973;-35
2023/05/21 17:53:55;;;;;;;65.90;5.38;;;;;;;20.94;49.95;99435.94;7314130;19;129190;-37
2023/05/21 17:56:21;;;;;;;47.95;4.00;;;;;;;20.94;49.75;99435.94;7309949;19;129537;-40
2023/05/21 17:58:48;;;;;;;23.58;2.53;;;;;;;20.92;50.06;99427.44;7315687;19;129171;-36
2023/05/21 18:01:13;;;;;;;30.10;3.08;;;;;;;20.96;49.93;99434.03;7312148;19;130169;-39
2023/05/21 18:03:39;;;;;;;38.92;3.33;;;;;;;20.98;49.58;99436.53;7314490;19;129279;-33
2023/05/21 18:06:04;;;;;;;29.80;2.58;;;;;;;20.97;49.26;99438.34;7314408;19;129336;-36
2023/05/21 18:08:29;;;;;;;16.00;2.25;;;;;;;21.01;49.61;99444.09;7315094;19;129108;-37
2023/05/21 18:10:56;;;;;;;28.13;3.13;;;;;;;21.01;49.56;99437.06;7315365;19;129370;-36
2023/05/21 18:13:22;;;;;;;48.15;4.30;;;;;;;21.03;49.24;99444.78;7314370;19;130755;-36
2023/05/21 18:15:47;;;;;;;27.58;2.95;;;;;;;20.90;49.60;99428.53;7313609;19;129029;-35
2023/05/21 18:18:16;;;;;;;48.67;3.97;;;;;;;20.99;49.45;99433.78;7312276;19;129493;-36
2023/05/21 18:20:42;;;;;;;22.23;2.63;;;;;;;20.99;49.07;99439.00;7314159;19;128952;-36
2023/05/21 18:23:08;;;;;;;45.35;3.65;;;;;;;20.99;49.43;99439.00;7314215;19;129202;-40
2023/05/21 18:25:34;;;;;;;13.70;2.35;;;;;;;21.01;49.18;99442.31;7312193;19;129491;-41
2023/05/21 18:27:59;;;;;;;29.38;3.55;;;;;;;21.01;49.45;99451.94;7313696;19;129337;-40
2023/05/21 18:30:25;;;;;;;24.10;3.15;;;;;;;21.02;49.74;99443.97;7314620;19;129128;-40
2023/05/21 18:32:50;;;;;;;67.45;4.97;;;;;;;21.03;49.48;99453.44;7312581;19;129016;-38
2023/05/21 18:35:15;;;;;;;37.70;3.70;;;;;;;21.05;49.51;99461.16;7312875;19;129130;-40
2023/05/21 18:37:43;;;;;;;39.70;3.72;;;;;;;21.07;48.95;99452.22;7313126;19;129230;-40
2023/05/21 18:40:09;;;;;;;23.65;2.85;;;;;;;21.03;49.02;99450.00;7313785;19;129539;-41
2023/05/21 18:42:35;;;;;;;24.17;3.08;;;;;;;21.11;48.61;99450.97;7313435;19;128844;-39
2023/05/21 18:45:10;;;;;;;22.02;2.85;;;;;;;21.06;49.15;99450.56;7311975;19;129360;-39
2023/05/21 18:47:37;;;;;;;26.15;3.17;;;;;;;21.07;49.15;99446.16;7315204;19;131093;-40
2023/05/21 18:50:03;;;;;;;25.77;2.65;;;;;;;21.10;49.06;99454.56;7310684;19;128803;-39
2023/05/21 18:52:28;;;;;;;46.55;3.92;;;;;;;21.10;48.75;99457.16;7314492;19;129830;-41
2023/05/21 18:54:54;;;;;;;46.00;4.25;;;;;;;21.01;48.67;99442.31;7310931;19;130634;-39
2023/05/21 18:57:19;;;;;;;15.82;2.67;;;;;;;21.08;48.58;99448.63;7311468;19;129247;-37
2023/05/21 18:59:44;;;;;;;19.75;2.35;;;;;;;21.14;48.70;99457.72;7315219;19;129476;-40
2023/05/21 19:02:10;;;;;;;39.92;3.80;;;;;;;21.11;48.80;99456.19;7310939;19;129175;-40
2023/05/21 19:04:35;;;;;;;26.80;3.08;;;;;;;21.12;48.45;99449.97;7313197;19;129223;-40
2023/05/21 19:07:02;;;;;;;28.38;2.85;;;;;;;21.12;49.25;99455.22;7313033;19;129380;-41
2023/05/21 19:09:28;;;;;;;74.40;6.18;;;;;;;21.15;49.11;99460.19;7310535;19;129598;-40
2023/05/21 19:11:54;;;;;;;52.08;4.32;;;;;;;21.16;48.67;99467.06;7312964;19;129270;-40
2023/05/21 19:14:19;;;;;;;19.15;2.78;;;;;;;21.12;49.03;99451.78;7312541;19;129521;-38
2023/05/21 19:16:45;;;;;;;23.60;3.00;;;;;;;21.15;48.72;99460.19;7309826;19;130166;-40
2023/05/21 19:19:10;;;;;;;21.90;2.63;;;;;;;21.09;48.60;99450.28;7311135;19;131520;-41
2023/05/21 19:21:36;;;;;;;61.85;5.18;;;;;;;21.17;48.35;99466.06;7312927;19;128920;-39
2023/05/21 19:24:01;;;;;;;26.30;3.05;;;;;;;21.17;48.92;99460.84;7312679;19;129663;-41
2023/05/21 19:26:27;;;;;;;31.35;3.80;;;;;;;21.17;49.06;99462.66;7303027;19;129635;-41
2023/05/21 19:28:53;;;;;;;34.20;3.75;;;;;;;21.21;48.75;99464.84;7312642;19;130059;-40
2023/05/21 19:31:19;;;;;;;50.80;4.47;;;;;;;21.21;48.40;99467.47;7309753;19;129008;-36
2023/05/21 19:33:44;;;;;;;45.03;4.60;;;;;;;21.23;48.47;99467.31;7311427;19;130360;-40
2023/05/21 19:36:10;;;;;;;27.50;3.25;;;;;;;21.19;48.70;99472.00;7310203;19;129204;-41
2023/05/21 19:38:37;;;;;;;30.10;3.45;;;;;;;21.20;48.78;99468.44;7309124;19;131698;-40
2023/05/21 19:41:03;;;;;;;37.75;3.85;;;;;;;21.19;48.52;99477.22;7312005;19;129001;-40
2023/05/21 19:43:28;;;;;;;54.63;4.78;;;;;;;21.07;49.03;99457.44;7310471;19;129499;-39
2023/05/21 19:45:53;;;;;;;43.75;3.83;;;;;;;21.17;48.47;99470.50;7309568;19;129647;-41
2023/05/21 19:48:19;;;;;;;53.25;4.30;;;;;;;21.21;48.50;99474.47;7308923;19;129030;-39
2023/05/21 19:50:44;;;;;;;55.15;4.68;;;;;;;21.24;48.58;99472.41;7310905;19;129750;-40
2023/05/21 19:53:09;;;;;;;31.42;3.45;;;;;;;21.24;48.72;99475.00;7310278;19;131159;-41
2023/05/21 19:55:36;;;;;;;32.75;3.72;;;;;;;21.23;48.07;99468.16;7309774;19;129411;-39
2023/05/21 19:58:02;;;;;;;75.90;6.07;;;;;;;21.24;48.73;99471.56;7310043;19;130264;-40
2023/05/21 20:00:28;;;;;;;31.90;3.43;;;;;;;21.26;48.47;99467.03;7311940;19;129029;-40
2023/05/21 20:02:54;;;;;;;25.30;3.05;;;;;;;21.25;48.73;99471.44;7319109;19;130070;-39
2023/05/21 20:05:20;;;;;;;31.48;3.33;;;;;;;21.25;48.56;99471.44;7313135;19;131829;-40
2023/05/21 20:07:45;;;;;;;44.38;3.90;;;;;;;21.14;48.65;99450.69;7318074;19;129075;-39
2023/05/21 20:10:11;;;;;;;42.03;4.00;;;;;;;21.26;48.61;99467.03;7316289;19;129025;-41
2023/05/21 20:12:37;;;;;;;31.95;3.38;;;;;;;21.29;48.08;99471.97;7318179;19;129576;-40
2023/05/21 20:15:05;;;;;;;57.77;5.37;;;;;;;21.21;47.98;99454.38;7315411;19;130022;-37
2023/05/21 20:17:32;;;;;;;45.03;4.07;;;;;;;21.27;48.69;99464.28;7316977;19;129268;-40
2023/05/21 20:20:00;;;;;;;38.40;3.95;;;;;;;21.24;48.49;99453.25;7317927;19;129927;-38
2023/05/21 20:22:26;;;;;;;22.70;2.97;;;;;;;21.31;48.50;99465.66;7315176;19;129331;-41
2023/05/21 20:24:51;;;;;;;31.57;3.20;;;;;;;21.32;48.13;99467.28;7318249;19;130304;-41
2023/05/21 20:27:18;;;;;;;41.97;3.75;;;;;;;21.31;48.66;99459.59;7315775;19;129365;-41
2023/05/21 20:29:44;;;;;;;26.50;2.88;;;;;;;21.31;48.73;99459.59;7318250;19;130029;-40
2023/05/21 20:32:09;;;;;;;32.03;3.78;;;;;;;21.33;48.75;99461.13;7314517;19;130102;-40
2023/05/21 20:34:36;;;;;;;28.70;3.15;;;;;;;21.32;47.93;99464.66;7317311;19;130501;-37
2023/05/21 20:37:01;;;;;;;95.57;7.28;;;;;;;21.32;48.26;99462.06;7315243;19;128993;-36
2023/05/21 20:39:28;;;;;;;47.80;4.67;;;;;;;21.24;48.13;99440.19;7318396;19;129848;-36
2023/05/21 20:41:54;;;;;;;18.80;2.72;;;;;;;21.27;47.96;99458.25;7317306;19;129271;-35
2023/05/21 20:44:20;;;;;;;32.22;3.47;;;;;;;21.37;48.65;99461.66;7314892;19;129575;-36
2023/05/21 20:46:46;;;;;;;39.70;3.75;;;;;;;21.31;48.45;99463.03;7313643;19;129473;-38
2023/05/21 20:49:12;;;;;;;35.45;3.75;;;;;;;21.37;48.02;99470.31;7317022;19;128879;-36
2023/05/21 20:51:38;;;;;;;34.27;3.60;;;;;;;21.27;47.97;99448.59;7313404;19;129569;-37
2023/05/21 20:54:03;;;;;;;51.97;4.35;;;;;;;21.40;48.02;99470.03;7316354;19;130637;-37
2023/05/21 20:56:30;;;;;;;42.95;3.95;;;;;;;21.42;48.41;99467.28;7313708;19;129096;-37
2023/05/21 20:58:56;;;;;;;33.17;3.63;;;;;;;21.38;48.51;99463.28;7317603;19;129659;-36
2023/05/21 21:01:21;;;;;;;11.80;2.20;;;;;;;21.38;48.05;99471.13;7315331;19;129050;-35
2023/05/21 21:03:46;;;;;;;44.35;4.38;;;;;;;21.42;48.33;99460.25;7316589;19;129647;-36
2023/05/21 21:06:12;;;;;;;81.28;6.55;;;;;;;21.43;48.43;99458.47;7313607;19;129029;-36
2023/05/21 21:08:39;;;;;;;32.17;3.20;;;;;;;21.41;48.35;99458.59;7316832;19;129194;-38
2023/05/21 21:11:05;;;;;;;49.75;4.28;;;;;;;21.41;48.00;99463.00;7314282;19;129738;-38
2023/05/21 21:13:30;;;;;;;39.67;3.55;;;;;;;21.43;48.52;99454.06;7314420;19;129665;-36
2023/05/21 21:15:56;;;;;;;31.45;3.38;;;;;;;21.41;48.49;99461.22;7315356;19;128967;-36
2023/05/21 21:18:21;;;;;;;30.40;3.13;;;;;;;21.41;48.02;99455.16;7315099;19;129686;-39
2023/05/21 21:20:48;;;;;;;6.60;1.90;;;;;;;21.45;48.61;99467.81;7316111;19;129109;-36
2023/05/21 21:23:13;;;;;;;;;;;;;;;21.41;47.96;99466.47;7314368;19;129488;-37
2023/05/21 21:25:39;;;;;;;42.03;3.85;;;;;;;21.43;48.40;99459.31;7313810;19;129461;-36
2023/05/21 21:28:04;;;;;;;23.40;2.95;;;;;;;21.40;48.65;99469.22;7316502;19;129122;-36
2023/05/21 21:30:29;;;;;;;23.17;2.50;;;;;;;21.45;48.42;99473.03;7316531;19;129373;-39
2023/05/21 21:32:55;;;;;;;60.72;5.05;;;;;;;21.46;48.29;99472.09;7310890;19;129679;-35
2023/05/21 21:35:20;;;;;;;29.15;2.88;;;;;;;21.45;48.25;99467.00;7314581;19;129045;-39
2023/05/21 21:37:46;;;;;;;41.97;3.92;;;;;;;21.48;48.38;99475.41;7316644;19;129155;-36
2023/05/21 21:40:12;;;;;;;32.53;3.30;;;;;;;21.49;48.08;99474.41;7310304;19;129122;-36
2023/05/21 21:42:37;;;;;;;74.57;5.57;;;;;;;21.46;48.08;99473.88;7310534;19;129476;-37
2023/05/21 21:45:03;;;;;;;55.28;4.32;;;;;;;21.48;48.27;99471.94;7311343;19;129359;-36
2023/05/21 21:47:28;;;;;;;62.90;4.60;;;;;;;21.50;48.12;99476.06;7308110;19;129825;-37
2023/05/21 21:49:54;;;;;;;52.97;3.80;;;;;;;21.48;48.29;99472.78;7310018;19;129606;-36
2023/05/21 21:52:20;;;;;;;64.30;4.78;;;;;;;21.51;47.75;99471.66;7311738;19;130357;-36
2023/05/21 21:54:46;;;;;;;37.50;3.42;;;;;;;21.49;48.41;99463.94;7314933;19;129047;-37
2023/05/21 21:57:11;;;;;;;24.35;2.67;;;;;;;21.51;47.84;99466.41;7316002;19;128930;-36
2023/05/21 21:59:37;;;;;;;50.58;3.97;;;;;;;21.51;48.24;99466.41;7316216;19;129564;-35
2023/05/21 22:02:03;;;;;;;16.60;2.23;;;;;;;21.53;48.27;99467.94;7315362;19;130572;-37
2023/05/21 22:04:28;;;;;;;9.05;2.17;;;;;;;21.51;48.17;99464.66;7315232;19;129341;-36
2023/05/21 22:06:53;;;;;;;21.42;2.75;;;;;;;21.50;48.35;99465.59;7315705;19;129378;-35
2023/05/21 22:09:21;;;;;;;33.78;3.42;;;;;;;21.52;47.89;99468.91;7315768;19;130937;-36
2023/05/21 22:11:47;;;;;;;36.45;3.45;;;;;;;21.48;48.10;99464.94;7314955;19;129447;-35
2023/05/21 22:14:12;;;;;;;26.00;2.47;;;;;;;21.53;48.19;99470.56;7313214;19;130313;-35
2023/05/21 22:16:37;;;;;;;31.23;3.03;;;;;;;21.52;47.84;99471.50;7311553;19;129434;-36
2023/05/21 22:19:03;;;;;;;42.17;3.45;;;;;;;21.54;48.39;99471.38;7315034;19;129335;-35
2023/05/21 22:21:31;;;;;;;28.33;3.05;;;;;;;21.56;47.67;99475.50;7315614;19;129224;-35
2023/05/21 22:23:57;;;;;;;52.17;4.50;;;;;;;21.47;48.22;99459.84;7313735;19;129752;-36
2023/05/21 22:26:22;;;;;;;32.85;2.88;;;;;;;21.52;48.00;99468.06;7312509;19;128963;-37
2023/05/21 22:28:48;;;;;;;41.05;3.42;;;;;;;21.48;47.81;99470.16;7313666;19;129440;-37
2023/05/21 22:31:15;;;;;;;32.03;3.20;;;;;;;21.53;47.72;99470.56;7314813;19;129265;-37
2023/05/21 22:33:40;;;;;;;25.10;2.88;;;;;;;21.54;47.75;99463.53;7314561;19;128766;-38
2023/05/21 22:36:06;;;;;;;23.08;2.40;;;;;;;21.57;47.94;99471.91;7311753;19;129395;-37
2023/05/21 22:38:31;;;;;;;43.33;3.80;;;;;;;21.55;48.04;99457.34;7313963;19;129051;-35
2023/05/21 22:40:56;;;;;;;43.72;3.72;;;;;;;21.53;48.17;99457.47;7313962;19;129638;-37
2023/05/21 22:43:22;;;;;;;22.40;2.28;;;;;;;21.55;48.08;99455.53;7315253;19;129144;-37
2023/05/21 22:45:47;;;;;;;24.73;2.88;;;;;;;21.55;47.74;99457.34;7311381;19;129303;-36
2023/05/21 22:48:13;;;;;;;47.75;3.72;;;;;;;21.55;47.79;99455.53;7314236;19;129103;-37
2023/05/21 22:50:38;;;;;;;24.38;2.40;;;;;;;21.56;47.30;99453.75;7314223;19;130214;-35
2023/05/21 22:53:03;;;;;;;4.68;1.48;;;;;;;21.56;48.05;99458.97;7314346;19;128982;-35
2023/05/21 22:55:29;;;;;;;27.17;2.53;;;;;;;21.53;47.93;99460.09;7311795;19;128988;-36
2023/05/21 22:57:54;;;;;;;39.13;3.42;;;;;;;21.57;47.87;99458.84;7313868;19;130100;-35
2023/05/21 23:00:20;;;;;;;7.22;1.83;;;;;;;21.61;47.83;99462.81;7312644;19;129477;-36
2023/05/21 23:02:46;;;;;;;30.27;2.45;;;;;;;21.60;47.37;99465.59;7313675;19;129262;-36
2023/05/21 23:05:12;;;;;;;37.05;3.05;;;;;;;21.60;47.84;99462.97;7312636;19;129242;-38
2023/05/21 23:07:37;;;;;;;32.78;2.83;;;;;;;21.60;47.28;99455.94;7313462;19;129843;-36
2023/05/21 23:10:03;;;;;;;32.50;2.60;;;;;;;21.62;47.71;99453.16;7313127;19;129683;-37
2023/05/21 23:12:28;;;;;;;22.27;2.30;;;;;;;21.60;47.61;99457.75;7313303;19;129269;-35
2023/05/21 23:14:53;;;;;;;51.10;3.85;;;;;;;21.61;47.54;99462.81;7311574;19;128876;-37
2023/05/21 23:17:19;;;;;;;34.70;3.15;;;;;;;21.54;47.38;99446.03;7313002;19;129408;-36
2023/05/21 23:19:44;;;;;;;5.40;1.63;;;;;;;21.58;47.84;99447.41;7313247;19;130585;-37
2023/05/21 23:22:10;;;;;;;27.40;2.60;;;;;;;21.60;47.44;99461.16;7313143;19;128893;-35
2023/05/21 23:24:35;;;;;;;45.80;3.55;;;;;;;21.63;47.32;99465.28;7312536;19;129785;-37
2023/05/21 23:27:01;;;;;;;18.60;2.30;;;;;;;21.62;47.26;99453.16;7313137;19;130147;-36
2023/05/21 23:29:30;;;;;;;33.47;3.17;;;;;;;21.52;47.16;99445.34;7312129;19;130277;-35
2023/05/21 23:31:56;;;;;;;30.25;2.60;;;;;;;21.63;47.18;99458.28;7312610;19;129233;-38
2023/05/21 23:34:23;;;;;;;40.55;3.10;;;;;;;21.53;47.83;99439.16;7312544;19;129210;-36
2023/05/21 23:36:49;;;;;;;50.90;3.90;;;;;;;21.52;47.06;99427.03;7314828;19;130159;-36
2023/05/21 23:39:14;;;;;;;7.10;1.70;;;;;;;21.64;47.37;99452.06;7319512;19;129220;-35
2023/05/21 23:41:40;;;;;;;41.47;3.30;;;;;;;21.64;47.27;99462.53;7318898;19;128916;-38
2023/05/21 23:44:05;;;;;;;53.13;3.83;;;;;;;21.66;47.63;99454.53;7319323;19;128936;-37
2023/05/21 23:46:31;;;;;;;28.25;2.50;;;;;;;21.65;47.64;99461.56;7319216;19;130562;-35
2023/05/21 23:48:56;;;;;;;25.77;2.40;;;;;;;21.65;47.31;99464.16;7318700;19;129353;-38
2023/05/21 23:51:21;;;;;;;15.57;2.17;;;;;;;21.68;47.44;99463.88;7319994;19;129003;-35
2023/05/21 23:53:47;;;;;;;80.63;5.47;;;;;;;21.66;47.62;99463.22;7318916;19;129030;-35
2023/05/21 23:56:12;;;;;;;32.47;2.72;;;;;;;21.68;46.97;99463.88;7317936;19;129326;-37
2023/05/21 23:58:37;;;;;;;13.13;1.73;;;;;;;21.69;47.05;99457.69;7318457;19;130485;-35
